Ride Results

Berringa Endurance Ride (24-08-2013)
Ride distance: 82.0 km

Outcomes - Berringa Endurance Ride (24-08-2013)
Division No. of Entries Retired / DNE Completed Withdrawn Ineligible V/O Percentage Completed
HW 3 - 3 - - - 100.00%
MW 10 - 9 - - 1 90.00%
LW 7 - 7 - - - 100.00%
JN 5 - 3 - - 2 60.00%
Totals 25 - 22 - - 3 88.00%
Results - Berringa Endurance Ride (24-08-2013)
No. Rider Horse Place Time Leg Speeds Total
Km/Hr
H/R bpm
Heavyweight
197 Dennis Moore Boss 1 (BC) 5:23:00 18.3, 13.0 15.23 40, 55, 58 (Avg:56)
754 Julie Lofts Ethereal Park Shadow Dancer 2 7:54:00 11.3, 9.5 10.38 32, 46, 48 (Avg:47)
58 Dianne Tobin Chimera 3 8:00:00 10.8, 9.6 10.25 40, 49, 48 (Avg:48)
Middleweight
756 Ben Hudson Oso Last Eclipse 1 (BC) 5:25:00 16.3, 14.0 15.14 24, 49, 54 (Avg:51)
42 Hans Peuker Marybank Celia 2 5:39:00 16.5, 12.9 14.51 30, 32, 50 (Avg:41)
351 Steve Blackhurst Weerina Arabian Princess 3 6:17:00 18.3, 10.1 13.05 36, 36, 44 (Avg:40)
175 Dianne Leehane Shah 4 6:44:00 12.6, 11.7 12.18 32, 38, 49 (Avg:43)
757 Amanda Kettlewell Oso Lee 5 6:53:00 17.9, 8.9 11.91 28, 50, 50 (Avg:50)
181 Sharee Court Makaveli Soulja 6 7:36:00 11.7, 9.9 10.79 37, 44, 50 (Avg:47)
138 Emma Sellens San Ella Nader 6 7:36:00 11.7, 9.9 10.79 30, 44, 44 (Avg:44)
758 Helen Yeoman Burren-dah Jemilla 6 7:36:00 11.7, 9.9 10.79 30, 43, 48 (Avg:45)
759 Tanya Beacham Creswick Magdaleenah 9 7:54:00 11.3, 9.5 10.38 32, 40, 44 (Avg:42)
747 Jenny Berg Candynae Heart Rate L2 0:00:00 16.5, 14.1 - 34, 46, 66 (Avg:56)
Lightweight
91 Kim Noble DVS Barnaby 1 (BC) 5:23:00 16.3, 14.2 15.23 34, 40, 58 (Avg:49)
11 Rohan Stanes Flying Circus Ring Master 2 6:13:00 13.7, 12.6 13.19 27, 32, 48 (Avg:40)
245 Melinda Stevens Shuja Bint Melika 2 6:13:00 13.7, 12.6 13.19 28, 40, 48 (Avg:44)
746 Shona Chila Leo 4 6:44:00 12.6, 11.7 12.18 36, 40, 48 (Avg:44)
744 Lauren Howson Al Marah Heyho Silver 5 6:53:00 17.9, 8.9 11.91 38, 48, 50 (Avg:49)
740 Natasha Willemse Al-Marah Thunder Bay 5 6:53:00 12.4, 11.3 11.91 29, 45, 50 (Avg:47)
61 Lois Sharam Musical Gully Carousel 7 7:54:00 11.3, 9.5 10.38 36, 46, 48 (Avg:47)
Junior
748 Ella Leehane Tarara Malone 1 (BC) 6:44:00 12.6, 11.7 12.18 32, 46, 50 (Avg:48)
749 Stacey Clarke Al Marah Gypsy Red 2 6:53:00 12.4, 11.3 11.91 40, 44, 52 (Avg:48)
745 Jena Crowe Summit Park Shenay 3 8:00:00 10.8, 9.6 10.25 36, 42, 44 (Avg:43)
90 Alison Noble Springridge Locksley Heart Rate L2 0:00:00 16.5, 14.1 - 30, 50, 75 (Avg:62)
755 Charlie Chila Carluke Renato Lame P/R 0:00:00 - - 30